createdAt,value
2023-01-19T00:01:18.254Z,13.88
2023-01-19T00:03:52.844Z,15.63
2023-01-19T00:06:25.722Z,12.15
2023-01-19T00:08:58.694Z,12.13
2023-01-19T00:11:31.788Z,14.32
2023-01-19T00:14:04.849Z,12.82
2023-01-19T00:16:37.779Z,14.00
2023-01-19T00:19:11.966Z,15.80
2023-01-19T00:21:44.851Z,13.77
2023-01-19T00:24:17.681Z,13.98
2023-01-19T00:26:50.558Z,8.80
2023-01-19T00:29:23.988Z,15.25
2023-01-19T00:31:56.854Z,12.52
2023-01-19T00:34:36.743Z,11.48
2023-01-19T00:37:09.970Z,15.30
2023-01-19T00:39:43.056Z,16.80
2023-01-19T00:42:33.655Z,13.80
2023-01-19T00:45:07.555Z,15.02
2023-01-19T00:47:40.661Z,14.25
2023-01-19T00:50:17.472Z,16.50
2023-01-19T00:52:51.011Z,14.40
2023-01-19T00:55:24.705Z,13.85
2023-01-19T00:57:57.618Z,15.55
2023-01-19T01:00:30.623Z,17.13
2023-01-19T01:03:04.091Z,16.52
2023-01-19T01:05:41.508Z,12.40
2023-01-19T01:08:14.364Z,16.65
2023-01-19T01:10:47.189Z,15.27
2023-01-19T01:13:21.727Z,17.27
2023-01-19T01:15:58.178Z,11.52
2023-01-19T01:18:31.106Z,13.85
2023-01-19T01:21:06.510Z,10.88
2023-01-19T01:23:39.366Z,12.60
2023-01-19T01:26:12.220Z,10.50
2023-01-19T01:28:45.099Z,18.00
2023-01-19T01:31:18.436Z,15.70
2023-01-19T01:33:51.360Z,19.52
2023-01-19T01:36:29.019Z,14.52
2023-01-19T01:39:01.959Z,19.35
2023-01-19T01:41:35.145Z,14.38
2023-01-19T01:44:49.370Z,16.50
2023-01-19T01:47:28.895Z,15.25
2023-01-19T01:50:07.313Z,16.73
2023-01-19T01:53:06.347Z,12.18
2023-01-19T01:55:45.114Z,14.93
2023-01-19T01:58:18.060Z,17.33
2023-01-19T02:01:08.451Z,13.77
2023-01-19T02:03:41.529Z,18.40
2023-01-19T02:06:15.709Z,16.48
2023-01-19T02:09:13.722Z,15.98
2023-01-19T02:12:03.870Z,14.43
2023-01-19T02:14:37.774Z,13.32
2023-01-19T02:17:10.586Z,17.13
2023-01-19T02:19:44.763Z,14.18
2023-01-19T02:22:23.866Z,16.30
2023-01-19T02:24:58.825Z,15.43
2023-01-19T02:27:32.895Z,17.85
2023-01-19T02:30:07.188Z,17.92
2023-01-19T02:32:40.241Z,20.27
2023-01-19T02:35:14.127Z,19.48
2023-01-19T02:37:47.866Z,17.87
2023-01-19T02:40:24.893Z,15.73
2023-01-19T02:43:00.907Z,17.50
2023-01-19T02:45:34.194Z,18.75
2023-01-19T02:48:07.577Z,19.95
2023-01-19T02:50:46.084Z,16.42
2023-01-19T02:53:48.523Z,18.30
2023-01-19T02:56:40.104Z,17.58
2023-01-19T02:59:24.025Z,19.20
2023-01-19T03:02:11.662Z,17.40
2023-01-19T03:04:59.344Z,18.40
2023-01-19T03:07:43.317Z,14.48
2023-01-19T03:10:21.470Z,16.40
2023-01-19T03:13:01.891Z,20.35
2023-01-19T03:15:43.228Z,19.50
2023-01-19T03:18:20.788Z,16.42
2023-01-19T03:20:56.800Z,16.77
2023-01-19T03:23:32.959Z,13.77
2023-01-19T03:26:10.229Z,16.98
2023-01-19T03:28:46.774Z,19.60
2023-01-19T03:31:23.883Z,16.85
2023-01-19T03:34:01.397Z,15.68
2023-01-19T03:36:38.223Z,15.15
2023-01-19T03:39:13.297Z,14.55
2023-01-19T03:46:58.087Z,14.90
2023-01-19T03:49:32.632Z,14.32
2023-01-19T03:52:06.231Z,16.98
2023-01-19T03:54:39.241Z,11.13
2023-01-19T03:57:12.789Z,19.45
2023-01-19T03:59:46.901Z,16.55
2023-01-19T04:02:22.293Z,18.15
2023-01-19T04:04:55.113Z,13.82
2023-01-19T04:07:28.603Z,13.88
2023-01-19T04:10:01.504Z,14.02
2023-01-19T04:12:34.248Z,14.80
2023-01-19T04:15:09.079Z,15.35
2023-01-19T04:17:42.579Z,13.20
2023-01-19T04:20:15.443Z,17.50
2023-01-19T04:22:48.986Z,13.57
2023-01-19T04:25:22.101Z,14.05
2023-01-19T04:27:57.890Z,14.68
2023-01-19T04:30:32.141Z,16.13
2023-01-19T04:33:05.180Z,13.63
2023-01-19T04:35:38.074Z,16.13
2023-01-19T04:38:11.099Z,15.82
2023-01-19T04:40:44.031Z,14.20
2023-01-19T04:43:17.100Z,16.42
2023-01-19T04:45:51.962Z,16.05
2023-01-19T04:48:24.808Z,16.02
2023-01-19T04:50:57.783Z,13.00
2023-01-19T04:53:30.683Z,16.27
2023-01-19T04:56:03.840Z,14.63
2023-01-19T04:58:36.789Z,14.68
2023-01-19T05:01:11.106Z,15.52
2023-01-19T05:03:44.039Z,14.43
2023-01-19T05:06:16.837Z,15.05
2023-01-19T05:08:50.205Z,13.65
2023-01-19T05:11:23.035Z,13.32
2023-01-19T05:13:55.794Z,13.20
2023-01-19T05:16:30.154Z,15.25
2023-01-19T05:19:02.960Z,13.48
2023-01-19T05:21:35.898Z,15.32
2023-01-19T05:24:09.612Z,14.68
2023-01-19T05:26:42.765Z,14.65
2023-01-19T05:29:15.608Z,11.32
2023-01-19T05:31:49.786Z,13.45
2023-01-19T05:34:22.700Z,13.25
2023-01-19T05:36:55.557Z,11.40
2023-01-19T05:39:29.517Z,11.95
2023-01-19T05:42:02.463Z,11.10
2023-01-19T05:44:35.274Z,9.43
2023-01-19T05:47:09.613Z,8.35
2023-01-19T05:49:42.377Z,7.80
2023-01-19T05:52:15.485Z,8.63
2023-01-19T05:54:48.759Z,12.55
2023-01-19T05:57:21.920Z,8.73
2023-01-19T05:59:55.109Z,12.98
2023-01-19T06:02:30.071Z,8.00
2023-01-19T06:05:04.431Z,10.75
2023-01-19T06:07:37.267Z,12.88
2023-01-19T06:10:11.210Z,9.43
2023-01-19T06:12:44.034Z,10.05
2023-01-19T06:15:16.869Z,10.38
2023-01-19T06:17:51.092Z,6.50
2023-01-19T06:20:24.099Z,9.77
2023-01-19T06:22:58.036Z,7.68
2023-01-19T06:25:31.130Z,9.93
2023-01-19T06:28:04.009Z,9.98
2023-01-19T06:30:36.855Z,7.60
2023-01-19T06:33:11.236Z,10.00
2023-01-19T06:35:44.589Z,10.73
2023-01-19T06:38:19.171Z,8.02
2023-01-19T06:40:58.322Z,7.30
2023-01-19T06:43:31.946Z,7.95
2023-01-19T06:46:04.837Z,8.05
2023-01-19T06:48:39.055Z,9.30
2023-01-19T06:51:11.842Z,9.03
2023-01-19T06:53:44.617Z,7.65
2023-01-19T06:56:17.454Z,8.73
2023-01-19T06:58:53.004Z,9.85
2023-01-19T07:01:26.766Z,8.60
2023-01-19T07:04:00.959Z,8.35
2023-01-19T07:06:33.804Z,10.47
2023-01-19T07:09:07.974Z,8.52
2023-01-19T07:11:41.055Z,7.60
2023-01-19T07:14:13.926Z,8.43
2023-01-19T07:16:46.860Z,9.27
2023-01-19T07:19:20.988Z,8.65
2023-01-19T07:21:53.779Z,7.47
2023-01-19T07:24:26.917Z,9.45
2023-01-19T07:26:59.717Z,7.90
2023-01-19T07:29:32.528Z,15.65
2023-01-19T07:32:05.965Z,11.27
2023-01-19T07:34:40.095Z,12.10
2023-01-19T07:37:12.983Z,11.30
2023-01-19T07:39:45.764Z,9.98
2023-01-19T07:42:18.583Z,15.00
2023-01-19T07:44:52.462Z,15.27
2023-01-19T07:47:25.255Z,12.07
2023-01-19T07:49:59.390Z,14.15
2023-01-19T07:52:32.231Z,13.45
2023-01-19T07:55:05.438Z,12.02
2023-01-19T07:57:38.478Z,12.85
2023-01-19T08:00:14.305Z,11.75
2023-01-19T08:02:49.950Z,12.15
2023-01-19T08:07:57.553Z,10.93
2023-01-19T08:10:30.572Z,14.65
2023-01-19T08:13:03.943Z,67.70
2023-01-19T08:15:37.542Z,11.85
2023-01-19T08:18:11.591Z,13.10
2023-01-19T08:20:45.908Z,15.63
2023-01-19T08:23:20.102Z,14.57
2023-01-19T08:25:53.179Z,17.05
2023-01-19T08:28:26.413Z,12.10
2023-01-19T08:31:05.339Z,9.60
2023-01-19T08:33:47.513Z,13.35
2023-01-19T08:36:22.534Z,7.53
2023-01-19T08:41:28.153Z,10.27
2023-01-19T08:44:01.103Z,13.05
2023-01-19T08:46:34.125Z,12.68
2023-01-19T08:49:07.328Z,10.13
2023-01-19T08:51:41.511Z,16.92
2023-01-19T08:54:17.073Z,13.63
2023-01-19T08:56:51.096Z,8.07
2023-01-19T08:59:23.855Z,11.90
2023-01-19T09:01:56.734Z,10.88
2023-01-19T09:04:29.834Z,20.38
2023-01-19T09:09:39.613Z,12.98
2023-01-19T09:12:12.550Z,10.23
2023-01-19T09:14:45.609Z,17.50
2023-01-19T09:17:18.686Z,10.65
2023-01-19T09:19:51.457Z,15.00
2023-01-19T09:22:25.992Z,15.35
2023-01-19T09:24:58.828Z,16.33
2023-01-19T09:27:31.844Z,12.07
2023-01-19T09:30:11.899Z,14.50
2023-01-19T09:32:44.954Z,17.13
2023-01-19T09:35:17.893Z,11.75
2023-01-19T09:37:51.995Z,23.00
2023-01-19T09:40:24.839Z,19.58
2023-01-19T09:43:04.851Z,16.00
2023-01-19T09:45:45.946Z,19.48
2023-01-19T09:48:37.163Z,19.80
2023-01-19T09:51:15.446Z,20.20
2023-01-19T09:53:56.541Z,20.88
2023-01-19T09:56:30.858Z,17.50
2023-01-19T09:59:21.741Z,24.30
2023-01-19T10:02:11.238Z,22.48
2023-01-19T10:04:51.576Z,19.77
2023-01-19T10:07:34.233Z,26.48
2023-01-19T10:10:18.599Z,11.43
2023-01-19T10:13:17.182Z,24.58
2023-01-19T10:15:58.191Z,21.45
2023-01-19T10:18:46.099Z,20.55
2023-01-19T10:21:22.495Z,18.83
2023-01-19T10:23:59.735Z,20.67
2023-01-19T10:26:36.296Z,28.98
2023-01-19T10:29:16.750Z,22.23
2023-01-19T10:31:51.772Z,28.10
2023-01-19T10:34:24.585Z,17.45
2023-01-19T10:37:03.578Z,29.95
2023-01-19T10:39:38.714Z,27.63
2023-01-19T10:42:16.141Z,24.50
2023-01-19T10:44:50.707Z,16.45
2023-01-19T10:47:33.265Z,17.27
2023-01-19T10:50:24.620Z,35.20
2023-01-19T10:53:00.094Z,31.15
2023-01-19T10:55:37.731Z,22.17
2023-01-19T10:58:28.957Z,26.17
2023-01-19T11:01:15.368Z,15.93
2023-01-19T11:03:48.800Z,23.80
2023-01-19T11:06:25.105Z,23.33
2023-01-19T11:09:13.380Z,24.15
2023-01-19T11:11:49.329Z,25.70
2023-01-19T11:14:25.458Z,20.20
2023-01-19T11:17:00.036Z,23.38
2023-01-19T11:19:34.362Z,27.45
2023-01-19T11:22:21.452Z,25.08
2023-01-19T11:24:59.400Z,28.30
2023-01-19T11:27:35.689Z,23.38
2023-01-19T11:30:20.619Z,23.60
2023-01-19T11:32:53.519Z,23.55
2023-01-19T11:35:34.254Z,16.67
2023-01-19T11:38:18.289Z,30.55
2023-01-19T11:40:54.310Z,27.80
2023-01-19T11:43:47.401Z,23.63
2023-01-19T11:46:25.946Z,19.17
2023-01-19T11:49:03.757Z,20.20
2023-01-19T11:51:42.819Z,32.50
2023-01-19T11:54:23.552Z,35.38
2023-01-19T11:56:59.851Z,32.78
2023-01-19T11:59:32.615Z,26.17
2023-01-19T12:02:18.468Z,28.10
2023-01-19T12:04:55.381Z,28.42
2023-01-19T12:07:31.558Z,19.73
2023-01-19T12:10:18.807Z,19.98
2023-01-19T12:12:53.264Z,31.15
2023-01-19T12:15:33.231Z,29.70
2023-01-19T12:18:11.623Z,29.80
2023-01-19T12:20:48.414Z,17.50
2023-01-19T12:23:38.375Z,27.98
2023-01-19T12:26:28.067Z,27.13
2023-01-19T12:29:05.276Z,43.65
2023-01-19T12:31:40.476Z,20.58
2023-01-19T12:34:41.581Z,28.92
2023-01-19T12:37:37.258Z,21.98
2023-01-19T12:40:24.454Z,25.90
2023-01-19T12:43:01.716Z,30.42
2023-01-19T12:45:36.519Z,28.40
2023-01-19T12:48:25.283Z,34.60
2023-01-19T12:50:59.475Z,26.73
2023-01-19T12:53:32.456Z,27.37
2023-01-19T12:56:09.954Z,19.13
2023-01-19T12:58:50.017Z,22.20
2023-01-19T13:01:24.745Z,21.80
2023-01-19T13:04:04.238Z,31.30
2023-01-19T13:07:10.407Z,25.85
2023-01-19T13:09:43.509Z,27.45
2023-01-19T13:12:24.625Z,25.40
2023-01-19T13:15:25.949Z,24.80
2023-01-19T13:17:59.004Z,26.05
2023-01-19T13:20:44.573Z,22.13
2023-01-19T13:26:04.888Z,26.58
2023-01-19T13:28:42.500Z,25.45
2023-01-19T13:31:16.418Z,21.73
2023-01-19T13:33:53.040Z,26.48
2023-01-19T13:36:30.796Z,32.13
2023-01-19T13:39:07.509Z,27.20
2023-01-19T13:41:41.902Z,31.17
2023-01-19T13:44:20.007Z,29.08
2023-01-19T13:46:54.837Z,33.92
2023-01-19T13:49:31.254Z,16.05
2023-01-19T13:52:08.735Z,26.95
2023-01-19T13:54:50.779Z,23.70
2023-01-19T13:57:25.898Z,24.92
2023-01-19T14:02:54.304Z,29.38
2023-01-19T14:05:32.864Z,31.02
2023-01-19T14:08:12.795Z,22.42
2023-01-19T14:10:51.076Z,32.28
2023-01-19T14:13:26.162Z,23.40
2023-01-19T14:18:33.909Z,30.00
2023-01-19T14:21:08.703Z,32.25
2023-01-19T14:23:47.991Z,28.83
2023-01-19T14:26:43.076Z,20.83
2023-01-19T14:29:27.966Z,22.35
2023-01-19T14:32:13.561Z,27.15
2023-01-19T14:34:48.509Z,23.40
2023-01-19T14:37:27.337Z,26.10
2023-01-19T14:40:04.633Z,26.73
2023-01-19T14:42:46.546Z,24.02
2023-01-19T14:45:21.452Z,23.95
2023-01-19T14:47:57.722Z,40.60
2023-01-19T14:50:33.865Z,30.25
2023-01-19T14:53:09.187Z,27.45
2023-01-19T14:55:47.578Z,29.88
2023-01-19T14:58:23.208Z,33.75
2023-01-19T15:00:56.398Z,27.58
2023-01-19T15:03:43.640Z,26.33
2023-01-19T15:06:19.673Z,26.02
2023-01-19T15:08:53.384Z,26.65
2023-01-19T15:11:30.445Z,25.00
2023-01-19T15:14:04.756Z,30.25
2023-01-19T15:16:37.587Z,28.33
2023-01-19T15:19:12.854Z,23.65
2023-01-19T15:21:46.807Z,30.30
2023-01-19T15:24:19.734Z,25.13
2023-01-19T15:26:52.504Z,28.90
2023-01-19T15:29:29.213Z,26.05
2023-01-19T15:32:03.823Z,28.25
2023-01-19T15:34:36.605Z,22.05
2023-01-19T15:37:09.399Z,20.33
2023-01-19T15:39:42.245Z,23.27
2023-01-19T15:42:16.142Z,20.30
2023-01-19T15:44:50.195Z,18.15
2023-01-19T15:47:22.983Z,26.67
2023-01-19T15:49:55.831Z,22.20
2023-01-19T15:52:28.729Z,27.02
2023-01-19T15:55:01.647Z,20.50
2023-01-19T15:57:35.426Z,20.55
2023-01-19T16:00:11.549Z,24.75
2023-01-19T16:02:45.175Z,20.77
2023-01-19T16:05:18.253Z,20.85
2023-01-19T16:07:51.145Z,25.58
2023-01-19T16:10:24.299Z,18.58
2023-01-19T16:12:57.100Z,21.92
2023-01-19T16:15:31.501Z,20.40
2023-01-19T16:18:05.188Z,21.45
2023-01-19T16:20:40.614Z,23.92
2023-01-19T16:23:15.235Z,18.90
2023-01-19T16:28:28.988Z,23.23
2023-01-19T16:31:03.662Z,20.55
2023-01-19T16:33:36.451Z,22.30
2023-01-19T16:36:20.833Z,20.02
2023-01-19T16:38:54.553Z,19.00
2023-01-19T16:41:28.201Z,20.85
2023-01-19T16:44:01.452Z,28.80
2023-01-19T16:46:37.783Z,20.52
2023-01-19T16:49:14.738Z,18.83
2023-01-19T16:51:48.812Z,29.90
2023-01-19T16:54:23.428Z,25.52
2023-01-19T16:56:58.269Z,27.38
2023-01-19T16:59:31.063Z,19.00
2023-01-19T17:02:05.442Z,21.15
2023-01-19T17:04:38.520Z,22.63
2023-01-19T17:07:11.303Z,28.70
2023-01-19T17:09:44.608Z,24.10
2023-01-19T17:12:17.429Z,26.20
2023-01-19T17:14:50.630Z,25.10
2023-01-19T17:17:24.764Z,21.88
2023-01-19T17:19:57.582Z,24.90
2023-01-19T17:22:30.400Z,26.02
2023-01-19T17:25:03.535Z,20.65
2023-01-19T17:27:36.546Z,19.30
2023-01-19T17:30:11.114Z,22.90
2023-01-19T17:32:45.490Z,20.33
2023-01-19T17:35:18.531Z,21.65
2023-01-19T17:37:53.908Z,17.05
2023-01-19T17:40:26.940Z,22.65
2023-01-19T17:42:59.730Z,24.08
2023-01-19T17:45:32.879Z,27.60
2023-01-19T17:48:08.260Z,20.75
2023-01-19T17:50:41.082Z,24.80
2023-01-19T17:53:14.301Z,25.33
2023-01-19T17:55:47.533Z,21.58
2023-01-19T17:58:20.319Z,21.80
2023-01-19T18:00:53.111Z,29.25
2023-01-19T18:03:27.355Z,20.58
2023-01-19T18:06:00.217Z,17.63
2023-01-19T18:08:34.575Z,24.10
2023-01-19T18:11:08.382Z,20.67
2023-01-19T18:13:43.642Z,21.23
2023-01-19T18:16:18.655Z,22.33
2023-01-19T18:21:30.599Z,17.63
2023-01-19T18:24:05.463Z,31.10
2023-01-19T18:26:38.847Z,27.75
2023-01-19T18:29:11.843Z,16.73
2023-01-19T18:31:44.930Z,28.70
2023-01-19T18:34:19.169Z,23.98
2023-01-19T18:36:52.215Z,28.83
2023-01-19T18:39:25.020Z,22.95
2023-01-19T18:41:57.817Z,28.95
2023-01-19T18:44:30.902Z,24.73
2023-01-19T18:47:03.683Z,24.70
2023-01-19T18:49:37.812Z,24.60
2023-01-19T18:52:10.693Z,18.47
2023-01-19T18:54:43.514Z,25.77
2023-01-19T18:57:17.772Z,23.65
2023-01-19T18:59:50.611Z,24.48
2023-01-19T19:02:24.199Z,30.00
2023-01-19T19:04:58.449Z,28.83
2023-01-19T19:07:31.405Z,26.83
2023-01-19T19:10:05.017Z,24.75
2023-01-19T19:12:37.813Z,25.13
2023-01-19T19:15:11.592Z,21.48
2023-01-19T19:17:44.380Z,20.50
2023-01-19T19:20:19.466Z,28.10
2023-01-19T19:22:52.317Z,28.60
2023-01-19T19:25:25.205Z,30.00
2023-01-19T19:27:57.969Z,31.38
2023-01-19T19:30:32.419Z,24.10
2023-01-19T19:33:05.463Z,28.83
2023-01-19T19:35:39.588Z,29.35
2023-01-19T19:38:12.372Z,27.70
2023-01-19T19:40:45.490Z,29.70
2023-01-19T19:43:19.169Z,21.80
2023-01-19T19:45:59.914Z,32.05
2023-01-19T19:48:33.114Z,30.35
2023-01-19T19:51:17.599Z,31.77
2023-01-19T19:53:52.397Z,34.78
2023-01-19T19:56:27.828Z,30.73
2023-01-19T19:59:01.955Z,30.73
2023-01-19T20:01:34.921Z,30.83
2023-01-19T20:04:10.546Z,33.60
2023-01-19T20:06:45.005Z,36.22
2023-01-19T20:09:18.276Z,33.38
2023-01-19T20:11:52.168Z,36.03
2023-01-19T20:14:25.216Z,27.20
2023-01-19T20:16:57.942Z,32.05
2023-01-19T20:19:32.562Z,27.02
2023-01-19T20:22:07.962Z,36.47
2023-01-19T20:24:40.738Z,34.67
2023-01-19T20:27:13.599Z,35.40
2023-01-19T20:29:51.431Z,33.03
2023-01-19T20:32:24.585Z,32.88
2023-01-19T20:34:57.451Z,34.97
2023-01-19T20:37:31.584Z,33.70
2023-01-19T20:40:05.215Z,34.07
2023-01-19T20:42:41.146Z,35.42
2023-01-19T20:45:14.272Z,31.48
2023-01-19T20:47:47.164Z,36.50
2023-01-19T20:50:20.052Z,28.67
2023-01-19T20:52:54.601Z,30.90
2023-01-19T20:55:27.959Z,29.75
2023-01-19T20:58:00.799Z,34.40
2023-01-19T21:00:34.527Z,34.92
2023-01-19T21:03:07.312Z,33.88
2023-01-19T21:05:40.081Z,30.23
2023-01-19T21:08:14.819Z,33.38
2023-01-19T21:10:47.553Z,28.67
2023-01-19T21:13:20.331Z,35.28
2023-01-19T21:15:53.239Z,28.05
2023-01-19T21:18:27.775Z,35.72
2023-01-19T21:21:00.773Z,35.63
2023-01-19T21:23:35.199Z,35.33
2023-01-19T21:26:08.042Z,37.70
2023-01-19T21:28:41.243Z,32.08
2023-01-19T21:31:15.163Z,29.02
2023-01-19T21:33:49.078Z,32.40
2023-01-19T21:36:24.968Z,34.50
2023-01-19T21:39:01.249Z,29.92
2023-01-19T21:41:35.668Z,34.08
2023-01-19T21:44:08.812Z,30.52
2023-01-19T21:46:41.648Z,34.72
2023-01-19T21:49:18.011Z,30.42
2023-01-19T21:51:51.123Z,36.13
2023-01-19T21:54:25.274Z,30.38
2023-01-19T21:56:58.086Z,32.77
2023-01-19T21:59:30.883Z,32.45
2023-01-19T22:02:03.835Z,37.60
2023-01-19T22:04:36.688Z,37.78
2023-01-19T22:07:09.459Z,35.08
2023-01-19T22:09:43.674Z,31.05
2023-01-19T22:12:16.716Z,31.77
2023-01-19T22:14:49.450Z,33.83
2023-01-19T22:17:22.451Z,36.33
2023-01-19T22:19:55.172Z,34.20
2023-01-19T22:22:28.193Z,33.92
2023-01-19T22:25:02.291Z,24.80
2023-01-19T22:27:35.017Z,34.73
2023-01-19T22:30:09.206Z,35.38
2023-01-19T22:32:42.069Z,30.40
2023-01-19T22:35:15.397Z,36.33
2023-01-19T22:37:48.237Z,31.75
2023-01-19T22:40:22.429Z,36.53
2023-01-19T22:42:55.152Z,37.25
2023-01-19T22:45:27.920Z,29.10
2023-01-19T22:48:00.675Z,32.45
2023-01-19T22:50:33.426Z,37.10
2023-01-19T22:53:06.489Z,36.65
2023-01-19T22:55:40.634Z,33.80
2023-01-19T22:58:13.500Z,35.08
2023-01-19T23:00:46.332Z,31.33
2023-01-19T23:03:19.066Z,26.85
2023-01-19T23:05:51.874Z,35.15
2023-01-19T23:08:24.659Z,29.58
2023-01-19T23:10:58.919Z,33.50
2023-01-19T23:13:31.920Z,32.42
2023-01-19T23:16:05.929Z,36.35
2023-01-19T23:18:39.112Z,37.57
2023-01-19T23:21:14.294Z,37.00
2023-01-19T23:23:47.076Z,38.78
2023-01-19T23:26:22.098Z,32.83
2023-01-19T23:31:31.046Z,40.67
2023-01-19T23:36:40.201Z,43.55
2023-01-19T23:39:16.179Z,38.25
2023-01-19T23:41:50.970Z,39.85
2023-01-19T23:46:57.903Z,37.50
2023-01-19T23:49:30.941Z,28.15
2023-01-19T23:52:05.626Z,40.33
2023-01-19T23:54:38.478Z,42.38
2023-01-19T23:57:12.624Z,44.38
2023-01-19T23:59:45.463Z,38.65
